Huvudsida
METAR-TAF:

METAR-TAF

Flygplatser :

Dr. Babasaheb Ambedkar International Airport

Nagpur, Indien

latitud: 21-06N, longitud: 079-03E, höjd: 308 m

Aktuellt väderrapport

Denna rapport gjordes för 36 minuter sedan, klockan 04:00 UTC
Vind 3 kt från syd
Temperatur 35°C
Fuktighet 60%
Tryck 1008 hPa
Sikt: 5000 m
Få moln på en höjd av 2000 ft
torrdis,

METAR: VANP 210400Z 18003KT 5000 HZ FEW020 35/26 Q1008 NOSIG

Tid: 10:06 (04:36 UTC)

Väderprognos

Denna rapport gjordes för 2 timmar och 36 minuter sedan, klockan 02:00 UTC
Prognos gäller från 21 kl. 03 UTC till 21 kl. 12 UTC
Vind 5 kt från sydväst
Sikt: 5000 m
torrdis
Blir
från 21 kl. 07 UTC till 21 kl. 09 UTC
Vind 5 kt från ost/sydost
Sikt: 5000 m
Få moln på en höjd av 2000 ft
Spridda moln på en höjd av 2500 ft
torrdis
Temporärt
från 21 kl. 09 UTC till 21 kl. 13 UTC
Få moln på en höjd av 3000 ft, Cumulonimbus.

TAF: VANP 210200Z 2103/2112 23005KT 5000 HZ NSC BECMG 2107/2109 12005KT 5000 HZ FEW020 SCT025 TEMPO 2109/2113 FEW030CB

Aktuella väderrapporter och prognoser från 4000 flygplatser (METAR- och TAF-rapporter).

De tillgängliga stationerna syns som gula och röda prickar på kartan.

För musen över prickarna för att se namnen på stationerna.

Klicka sedan för att få väderrapporter och prognoser.

För att ändra kartan: Klicka på de gröna knapparna med ett svart kors på för att zooma in; den gröna knappen med ett streck på för att zooma ut; eller på de gröna pilarna för angränsande kartor.


METAR-TAF: